Time;durP1;ratioP1;P1;durP2;ratioP2;P2;SDS_P1;SDS_P2;PMS_P1;PMS_P2;Temp;Humidity;BMP_temperature;BMP_pressure;BME280_temperature;BME280_humidity;BME280_pressure;Samples;Min_cycle;Max_cycle;Signal;HPM_P1;HPM_P2
2021/12/26 00:00:24;;;;;;;6.60;5.93;;;;;;;-1.11;100.00;97210.63;4923189;28;20548;-73
2021/12/26 00:02:53;;;;;;;6.43;5.83;;;;;;;-1.07;100.00;97217.25;4948504;28;20213;-74
2021/12/26 00:05:21;;;;;;;5.87;5.37;;;;;;;-1.06;100.00;97216.31;4948695;28;20508;-73
2021/12/26 00:07:49;;;;;;;6.27;5.70;;;;;;;-1.11;100.00;97210.63;4953743;28;20234;-75
2021/12/26 00:10:20;;;;;;;6.00;5.47;;;;;;;-1.11;100.00;97208.00;4953425;28;20649;-72
2021/12/26 00:12:50;;;;;;;7.27;5.70;;;;;;;-1.08;100.00;97219.03;4954235;28;20285;-76
2021/12/26 00:15:19;;;;;;;6.07;5.57;;;;;;;-1.09;100.00;97208.72;4932071;28;20230;-73
2021/12/26 00:17:47;;;;;;;6.27;5.77;;;;;;;-1.07;100.00;97215.50;4927250;28;20473;-72
2021/12/26 00:20:16;;;;;;;6.80;6.10;;;;;;;-1.11;100.00;97218.41;4938340;28;20217;-73
2021/12/26 00:22:45;;;;;;;6.50;5.87;;;;;;;-1.17;100.00;97214.47;4955994;28;20530;-74
2021/12/26 00:25:15;;;;;;;6.17;5.67;;;;;;;-1.12;100.00;97216.75;4952097;28;20298;-74
2021/12/26 00:27:44;;;;;;;5.67;5.17;;;;;;;-1.14;100.00;97210.84;4954232;28;20242;-74
2021/12/26 00:30:18;;;;;;;5.97;5.43;;;;;;;-1.10;100.00;97207.06;4945525;28;20590;-72
2021/12/26 00:32:47;;;;;;;5.83;5.33;;;;;;;-1.11;100.00;97205.41;4925613;28;20590;-75
2021/12/26 00:35:18;;;;;;;5.13;4.67;;;;;;;-1.17;100.00;97204.06;4940491;28;20217;-73
2021/12/26 00:37:46;;;;;;;6.07;5.47;;;;;;;-1.06;100.00;97206.75;4951763;28;20233;-75
2021/12/26 00:40:16;;;;;;;5.90;5.40;;;;;;;-1.10;100.00;97204.47;4953750;28;20202;-72
2021/12/26 00:42:44;;;;;;;6.23;5.63;;;;;;;-1.12;100.00;97209.81;4955907;28;20234;-74
2021/12/26 00:45:14;;;;;;;6.27;5.60;;;;;;;-1.15;100.00;97209.19;4946729;28;20299;-73
2021/12/26 00:47:42;;;;;;;6.60;5.90;;;;;;;-1.10;100.00;97209.69;4928634;28;20234;-72
2021/12/26 00:50:12;;;;;;;6.53;5.93;;;;;;;-1.12;100.00;97220.19;4939886;28;20247;-73
2021/12/26 00:52:40;;;;;;;6.53;5.83;;;;;;;-1.17;100.00;97223.13;4957094;28;20233;-74
2021/12/26 00:55:11;;;;;;;6.23;5.63;;;;;;;-1.13;100.00;97225.50;4946896;28;20215;-73
2021/12/26 00:57:40;;;;;;;6.93;6.13;;;;;;;-1.10;100.00;97214.88;4959084;28;20242;-75
2021/12/26 01:00:12;;;;;;;6.40;5.83;;;;;;;-1.13;100.00;97220.28;4954007;28;20217;-73
2021/12/26 01:02:42;;;;;;;6.97;6.27;;;;;;;-1.19;100.00;97222.41;4914344;28;20221;-73
2021/12/26 01:05:10;;;;;;;6.23;5.63;;;;;;;-1.12;100.00;97219.34;4950441;28;20393;-74
2021/12/26 01:07:49;;;;;;;6.77;6.17;;;;;;;-1.06;100.00;97216.31;4948486;28;20845;-73
2021/12/26 01:10:19;;;;;;;7.10;6.40;;;;;;;-1.10;100.00;97227.88;4959901;28;20460;-74
2021/12/26 01:12:49;;;;;;;7.83;6.10;;;;;;;-1.09;100.00;97219.13;4955771;28;20300;-73
2021/12/26 01:15:18;;;;;;;5.87;5.37;;;;;;;-1.08;100.00;97226.00;4948826;28;20672;-72
2021/12/26 01:17:49;;;;;;;6.37;5.73;;;;;;;-1.10;100.00;97222.69;4955902;28;20242;-75
2021/12/26 01:20:28;;;;;;;7.57;6.83;;;;;;;-1.17;100.00;97224.88;4922271;28;20343;-72
2021/12/26 01:22:56;;;;;;;7.50;5.90;;;;;;;-1.16;100.00;97226.53;4949986;28;20600;-72
2021/12/26 01:25:24;;;;;;;8.10;6.03;;;;;;;-1.15;100.00;97224.78;4954197;28;20214;-73
2021/12/26 01:27:52;;;;;;;7.20;6.50;;;;;;;-1.14;100.00;97214.25;4960521;28;20249;-73
2021/12/26 01:30:20;;;;;;;6.20;5.70;;;;;;;-1.12;100.00;97221.97;4948249;28;20202;-73
2021/12/26 01:32:49;;;;;;;6.97;6.37;;;;;;;-1.15;100.00;97222.19;4957151;28;20318;-73
2021/12/26 01:35:17;;;;;;;7.23;6.53;;;;;;;-1.17;100.00;97219.66;4926755;28;20280;-74
2021/12/26 01:37:45;;;;;;;7.23;6.57;;;;;;;-1.14;100.00;97229.03;4942907;28;20229;-73
2021/12/26 01:40:15;;;;;;;7.63;6.83;;;;;;;-1.08;100.00;97223.41;4955680;28;20213;-73
2021/12/26 01:42:43;;;;;;;7.87;7.07;;;;;;;-1.10;100.00;97225.28;4955820;28;20214;-75
2021/12/26 01:45:11;;;;;;;8.27;7.47;;;;;;;-1.11;100.00;97234.88;4952811;28;20206;-73
2021/12/26 01:47:40;;;;;;;7.93;7.13;;;;;;;-1.07;100.00;97235.47;4949785;28;20428;-74
2021/12/26 01:50:10;;;;;;;7.70;6.90;;;;;;;-1.10;100.00;97238.28;4952055;28;20202;-74
2021/12/26 01:52:38;;;;;;;7.63;6.83;;;;;;;-1.15;100.00;97242.97;4931226;28;20872;-74
2021/12/26 01:55:22;;;;;;;7.47;6.77;;;;;;;-1.18;100.00;97238.81;4951043;28;20222;-73
2021/12/26 01:57:52;;;;;;;7.90;7.20;;;;;;;-1.15;100.00;97240.38;4959101;28;20262;-75
2021/12/26 02:00:21;;;;;;;6.80;6.20;;;;;;;-1.15;100.00;97236.00;4951167;28;20214;-73
2021/12/26 02:02:50;;;;;;;7.67;6.90;;;;;;;-1.05;100.00;97236.19;4946015;28;20241;-74
2021/12/26 02:05:19;;;;;;;7.30;6.63;;;;;;;-1.17;100.00;97232.69;4955862;28;20214;-73
2021/12/26 02:07:47;;;;;;;6.73;6.03;;;;;;;-1.10;100.00;97238.28;4928084;28;20245;-75
2021/12/26 02:10:16;;;;;;;7.67;6.97;;;;;;;-1.16;100.00;97236.94;4943408;28;20230;-73
2021/12/26 02:12:44;;;;;;;7.57;6.70;;;;;;;-1.15;100.00;97238.59;4958353;28;20271;-75
2021/12/26 02:15:12;;;;;;;8.50;6.50;;;;;;;-1.17;100.00;97235.28;4956496;28;20586;-73
2021/12/26 02:17:40;;;;;;;6.97;6.20;;;;;;;-1.12;100.00;97241.00;4949620;28;20241;-74
2021/12/26 02:20:18;;;;;;;9.10;7.80;;;;;;;-1.15;100.00;97235.19;4957117;28;20255;-73
2021/12/26 02:22:52;;;;;;;8.20;7.33;;;;;;;-1.19;100.00;97219.78;4926553;28;20210;-74
2021/12/26 02:25:32;;;;;;;7.40;6.77;;;;;;;-1.14;100.00;97229.03;4942939;28;20586;-73
2021/12/26 02:28:00;;;;;;;8.07;7.07;;;;;;;-1.20;100.00;97228.53;4955383;28;20678;-73
2021/12/26 02:30:28;;;;;;;9.27;7.50;;;;;;;-1.20;100.00;97231.13;4954314;28;20425;-74
2021/12/26 02:32:59;;;;;;;8.07;7.10;;;;;;;-1.22;100.00;97230.41;4949379;28;20257;-75
2021/12/26 02:35:29;;;;;;;10.10;7.57;;;;;;;-1.16;100.00;97231.72;4953735;28;20217;-71
2021/12/26 02:37:57;;;;;;;7.07;6.37;;;;;;;-1.13;100.00;97236.75;4945424;28;20749;-74
2021/12/26 02:40:25;;;;;;;8.50;7.70;;;;;;;-1.19;100.00;97229.34;4912824;28;20218;-74
2021/12/26 02:42:53;;;;;;;7.53;6.73;;;;;;;-1.26;100.00;97228.13;4942311;28;20218;-73
2021/12/26 02:45:21;;;;;;;7.63;6.77;;;;;;;-1.26;100.00;97225.53;4957242;28;20210;-74
2021/12/26 02:47:51;;;;;;;8.90;7.33;;;;;;;-1.14;100.00;97222.06;4945273;28;20289;-72
2021/12/26 02:50:21;;;;;;;6.83;6.13;;;;;;;-1.23;100.00;97230.50;4954053;28;20221;-73
2021/12/26 02:52:51;;;;;;;9.00;7.70;;;;;;;-1.28;100.00;97230.00;4953830;28;20250;-72
2021/12/26 02:55:21;;;;;;;9.73;7.93;;;;;;;-1.23;100.00;97231.34;4920542;28;20671;-74
2021/12/26 02:57:50;;;;;;;7.13;6.43;;;;;;;-1.26;100.00;97228.97;4953280;28;20230;-73
2021/12/26 03:00:21;;;;;;;10.13;7.27;;;;;;;-1.23;100.00;97223.56;4955928;28;20241;-73
2021/12/26 03:02:53;;;;;;;8.27;7.43;;;;;;;-1.27;100.00;97219.53;4943330;28;20453;-73
2021/12/26 03:05:22;;;;;;;7.87;7.13;;;;;;;-1.30;100.00;97222.34;4956000;28;20221;-74
2021/12/26 03:07:51;;;;;;;8.40;6.93;;;;;;;-1.31;100.00;97224.09;4952055;28;20230;-73
2021/12/26 03:10:22;;;;;;;11.10;7.03;;;;;;;-1.26;100.00;97218.59;4928233;28;20225;-74
2021/12/26 03:12:52;;;;;;;8.63;6.90;;;;;;;-1.31;100.00;97221.50;4942818;28;20797;-72
2021/12/26 03:15:20;;;;;;;8.33;7.43;;;;;;;-1.34;100.00;97224.31;4956922;28;20206;-72
2021/12/26 03:17:48;;;;;;;9.23;7.37;;;;;;;-1.29;100.00;97229.19;4955194;28;20229;-72
2021/12/26 03:20:18;;;;;;;7.73;6.93;;;;;;;-1.32;100.00;97216.41;4949855;28;20487;-74
2021/12/26 03:22:46;;;;;;;8.43;7.50;;;;;;;-1.27;100.00;97222.13;4955882;28;20280;-72
2021/12/26 03:25:18;;;;;;;8.63;7.37;;;;;;;-1.22;100.00;97225.22;4928112;28;20214;-74
2021/12/26 03:27:46;;;;;;;10.10;8.00;;;;;;;-1.26;100.00;97225.53;4945613;28;20253;-72
2021/12/26 03:30:17;;;;;;;9.07;8.07;;;;;;;-1.26;100.00;97231.56;4958148;28;20226;-75
2021/12/26 03:32:45;;;;;;;9.60;7.23;;;;;;;-1.28;100.00;97223.06;4954823;28;20213;-72
2021/12/26 03:35:13;;;;;;;8.10;7.30;;;;;;;-1.23;100.00;97222.72;4948596;28;20224;-75
2021/12/26 03:37:42;;;;;;;8.90;7.50;;;;;;;-1.23;100.00;97220.13;4954118;28;20322;-72
2021/12/26 03:40:11;;;;;;;8.77;7.30;;;;;;;-1.27;100.00;97209.13;4928122;28;20225;-72
2021/12/26 03:42:40;;;;;;;8.23;7.43;;;;;;;-1.23;100.00;97217.50;4947051;28;20643;-72
2021/12/26 03:45:20;;;;;;;7.80;7.00;;;;;;;-1.22;100.00;97214.81;4955782;28;20210;-74
2021/12/26 03:47:50;;;;;;;7.03;6.33;;;;;;;-1.22;100.00;97212.22;4953499;28;20248;-72
2021/12/26 03:50:19;;;;;;;8.30;7.40;;;;;;;-1.21;100.00;97207.84;4957225;28;20209;-73
2021/12/26 03:52:50;;;;;;;8.80;7.27;;;;;;;-1.15;100.00;97210.00;4945430;28;20214;-72
2021/12/26 03:55:18;;;;;;;7.43;6.43;;;;;;;-1.23;100.00;97210.56;4956612;28;20205;-73
2021/12/26 03:57:47;;;;;;;7.57;6.87;;;;;;;-1.22;100.00;97211.38;4911705;28;20592;-72
2021/12/26 04:00:16;;;;;;;8.03;7.17;;;;;;;-1.22;100.00;97214.81;4956395;28;20206;-75
2021/12/26 04:02:45;;;;;;;8.10;7.20;;;;;;;-1.21;100.00;97216.47;4951524;28;20210;-74
2021/12/26 04:05:14;;;;;;;8.50;6.47;;;;;;;-1.23;100.00;97215.75;4954499;28;20195;-74
2021/12/26 04:07:43;;;;;;;8.13;6.53;;;;;;;-1.22;100.00;97222.63;4947424;28;20241;-72
2021/12/26 04:10:12;;;;;;;9.23;6.73;;;;;;;-1.22;100.00;97220.03;4955722;28;20202;-74
2021/12/26 04:12:45;;;;;;;8.00;7.03;;;;;;;-1.19;100.00;97213.75;4921079;28;20713;-74
2021/12/26 04:15:20;;;;;;;8.47;7.00;;;;;;;-1.19;100.00;97219.78;4955843;28;20222;-74
2021/12/26 04:17:48;;;;;;;8.53;6.97;;;;;;;-1.21;100.00;97213.03;4952179;28;20229;-72
2021/12/26 04:20:16;;;;;;;8.87;7.97;;;;;;;-1.20;100.00;97210.34;4957409;28;21001;-72
2021/12/26 04:22:44;;;;;;;8.50;7.70;;;;;;;-1.13;100.00;97204.69;4942430;28;20210;-73
2021/12/26 04:25:12;;;;;;;8.87;7.97;;;;;;;-1.12;100.00;97214.16;4956809;28;20221;-74
2021/12/26 04:27:40;;;;;;;8.20;7.37;;;;;;;-1.18;100.00;97205.00;4928657;28;20233;-73
2021/12/26 04:30:10;;;;;;;9.37;8.13;;;;;;;-1.20;100.00;97202.53;4950206;28;20527;-73
2021/12/26 04:32:40;;;;;;;7.83;7.03;;;;;;;-1.17;100.00;97206.66;4948608;28;20241;-72
2021/12/26 04:35:09;;;;;;;9.90;7.50;;;;;;;-1.12;100.00;97212.41;4958503;28;20626;-73
2021/12/26 04:37:37;;;;;;;7.90;7.17;;;;;;;-1.11;100.00;97221.88;4948360;28;20242;-72
2021/12/26 04:40:09;;;;;;;8.00;7.20;;;;;;;-1.08;100.00;97223.41;4958291;28;20240;-74
2021/12/26 04:42:38;;;;;;;7.77;6.57;;;;;;;-1.19;100.00;97217.19;4929185;28;20599;-72
2021/12/26 04:45:08;;;;;;;7.87;7.07;;;;;;;-1.15;100.00;97219.56;4948834;28;20472;-72
2021/12/26 04:47:37;;;;;;;9.30;7.80;;;;;;;-1.14;100.00;97218.63;4959219;28;20260;-72
2021/12/26 04:50:10;;;;;;;9.70;8.03;;;;;;;-1.08;100.00;97223.41;4958313;28;20210;-74
2021/12/26 04:52:39;;;;;;;8.23;7.43;;;;;;;-1.11;100.00;97218.41;4948998;28;20222;-72
2021/12/26 04:55:08;;;;;;;8.90;7.57;;;;;;;-1.14;100.00;97226.44;4956781;28;20478;-72
2021/12/26 04:57:37;;;;;;;8.50;7.60;;;;;;;-1.11;100.00;97226.22;4949446;28;20550;-72
2021/12/26 05:00:05;;;;;;;9.53;7.80;;;;;;;-1.09;100.00;97226.94;4930414;28;20857;-73
2021/12/26 05:02:36;;;;;;;10.00;8.23;;;;;;;-1.11;100.00;97236.63;4956244;28;20210;-73
2021/12/26 05:05:06;;;;;;;8.57;7.70;;;;;;;-1.11;100.00;97228.81;4957388;28;20416;-73
2021/12/26 05:07:34;;;;;;;10.27;7.80;;;;;;;-1.13;100.00;97231.53;4948266;28;20237;-73
2021/12/26 05:10:03;;;;;;;9.60;7.90;;;;;;;-1.11;100.00;97231.41;4956627;28;20198;-74
2021/12/26 05:12:36;;;;;;;8.60;7.70;;;;;;;-1.09;100.00;97237.34;4958625;28;20210;-73
2021/12/26 05:15:05;;;;;;;8.97;8.03;;;;;;;-1.04;100.00;97243.88;4919511;28;20741;-74
2021/12/26 05:17:33;;;;;;;8.37;7.43;;;;;;;-1.06;100.00;97242.31;4950849;28;20233;-76
2021/12/26 05:20:01;;;;;;;9.53;7.43;;;;;;;-1.06;100.00;97247.53;4953168;28;20598;-72
2021/12/26 05:22:30;;;;;;;9.60;8.03;;;;;;;-1.07;100.00;97241.50;4930594;28;20778;-75
2021/12/26 05:24:58;;;;;;;9.17;7.83;;;;;;;-1.09;100.00;97237.34;4950320;28;20221;-74
2021/12/26 05:27:26;;;;;;;8.67;7.90;;;;;;;-1.11;100.00;97241.81;4942483;28;20461;-73
2021/12/26 05:29:54;;;;;;;8.23;7.37;;;;;;;-1.11;100.00;97241.81;4928026;28;20214;-74
2021/12/26 05:32:22;;;;;;;8.80;7.90;;;;;;;-1.09;100.00;97234.75;4947720;28;20217;-74
2021/12/26 05:34:50;;;;;;;11.23;7.90;;;;;;;-1.08;100.00;97234.63;4943192;28;20230;-71
2021/12/26 05:37:18;;;;;;;9.10;8.20;;;;;;;-1.09;100.00;97239.94;4945553;28;20233;-70
2021/12/26 05:39:47;;;;;;;9.60;8.10;;;;;;;-1.04;100.00;97238.69;4942849;28;20210;-71
2021/12/26 05:42:16;;;;;;;13.60;9.00;;;;;;;-1.04;100.00;97230.03;4946663;28;20679;-70
2021/12/26 05:44:44;;;;;;;9.63;8.63;;;;;;;-1.09;100.00;97230.38;4929193;28;20218;-72
2021/12/26 05:47:13;;;;;;;10.17;9.07;;;;;;;-1.08;100.00;97228.59;4942214;28;20253;-70
2021/12/26 05:49:41;;;;;;;9.90;8.83;;;;;;;-1.09;100.00;97226.94;4956705;28;20454;-74
2021/12/26 05:52:10;;;;;;;9.53;8.57;;;;;;;-1.11;100.00;97223.63;4951569;28;20244;-70
2021/12/26 05:54:39;;;;;;;10.27;9.07;;;;;;;-1.10;100.00;97215.72;4953938;28;20349;-73
2021/12/26 05:57:09;;;;;;;10.83;8.87;;;;;;;-1.09;100.00;97224.34;4953462;28;20603;-72
2021/12/26 05:59:37;;;;;;;9.27;8.33;;;;;;;-0.99;100.00;97227.13;4925985;28;21275;-72
2021/12/26 06:02:05;;;;;;;10.93;9.53;;;;;;;-1.06;100.00;97227.56;4949403;28;20210;-70
2021/12/26 06:04:33;;;;;;;10.23;9.10;;;;;;;-0.99;100.00;97224.50;4955903;28;20241;-72
2021/12/26 06:07:01;;;;;;;16.50;14.63;;;;;;;-1.07;100.00;97222.44;4958989;28;20237;-70
2021/12/26 06:09:29;;;;;;;14.03;12.70;;;;;;;-1.07;100.00;97219.84;4939978;28;20455;-76
2021/12/26 06:11:57;;;;;;;13.20;11.77;;;;;;;-1.04;100.00;97219.63;4958826;28;20466;-76
2021/12/26 06:14:27;;;;;;;16.40;13.57;;;;;;;-1.03;100.00;97221.28;4915381;28;20327;-74
2021/12/26 06:16:55;;;;;;;13.37;10.30;;;;;;;-1.04;100.00;97214.44;4949270;28;20484;-73
2021/12/26 06:19:23;;;;;;;11.70;10.27;;;;;;;-1.10;100.00;97213.13;4954513;28;20782;-73
2021/12/26 06:21:50;;;;;;;13.17;10.90;;;;;;;-1.04;100.00;97214.44;4959192;28;20214;-73
2021/12/26 06:24:18;;;;;;;11.97;9.63;;;;;;;-1.09;100.00;97206.97;4944397;28;20209;-71
2021/12/26 06:26:47;;;;;;;11.20;9.87;;;;;;;-1.08;100.00;97218.19;4958331;28;20826;-73
2021/12/26 06:29:15;;;;;;;18.53;16.07;;;;;;;-1.10;100.00;97210.53;4943694;28;20218;-70
2021/12/26 06:31:44;;;;;;;43.13;38.47;;;;;;;-1.08;100.00;97218.19;4929794;28;20218;-73
2021/12/26 06:34:12;;;;;;;48.13;38.90;;;;;;;-1.06;100.00;97213.72;4944852;28;20218;-70
2021/12/26 06:36:41;;;;;;;22.27;20.07;;;;;;;-1.03;100.00;97210.88;4956222;28;20310;-74
2021/12/26 06:39:09;;;;;;;16.13;14.63;;;;;;;-1.04;100.00;97215.28;4947100;28;20722;-69
2021/12/26 06:41:38;;;;;;;12.63;10.93;;;;;;;-1.00;100.00;97215.88;4944495;28;20214;-74
2021/12/26 06:44:08;;;;;;;12.80;11.50;;;;;;;-1.01;100.00;97227.22;4953799;28;20472;-71
2021/12/26 06:46:40;;;;;;;11.03;9.87;;;;;;;-1.04;100.00;97225.69;4911984;28;20896;-73
2021/12/26 06:49:10;;;;;;;12.53;10.73;;;;;;;-1.00;100.00;97223.66;4947146;28;20736;-70
2021/12/26 06:51:37;;;;;;;10.07;9.17;;;;;;;-1.03;100.00;97226.50;4957579;28;20210;-73
2021/12/26 06:54:06;;;;;;;11.23;9.67;;;;;;;-0.98;100.00;97224.38;4953892;28;20218;-73
2021/12/26 06:56:34;;;;;;;12.33;10.03;;;;;;;-0.93;100.00;97229.28;4947035;28;20689;-74
2021/12/26 06:59:02;;;;;;;11.30;9.60;;;;;;;-0.95;100.00;97233.75;4958638;28;20206;-72
2021/12/26 07:01:30;;;;;;;10.13;9.13;;;;;;;-0.96;100.00;97243.31;4948249;28;20728;-75
2021/12/26 07:03:58;;;;;;;10.50;9.40;;;;;;;-0.97;100.00;97239.06;4918134;28;20211;-75
2021/12/26 07:06:27;;;;;;;10.13;9.10;;;;;;;-0.95;100.00;97233.75;4945471;28;20245;-72
2021/12/26 07:08:55;;;;;;;11.20;9.73;;;;;;;-0.93;100.00;97237.91;4956893;28;20198;-76
2021/12/26 07:11:23;;;;;;;10.53;9.37;;;;;;;-0.90;100.00;97242.91;4941129;28;20225;-75
2021/12/26 07:13:51;;;;;;;10.90;9.07;;;;;;;-0.85;100.00;97242.53;4956275;28;20206;-76
2021/12/26 07:16:19;;;;;;;12.53;9.30;;;;;;;-0.86;100.00;97243.50;4946734;28;20843;-75
2021/12/26 07:18:47;;;;;;;10.10;9.00;;;;;;;-0.83;100.00;97250.25;4908970;28;20390;-79
2021/12/26 07:21:15;;;;;;;11.43;9.37;;;;;;;-0.80;100.00;97252.63;4947266;28;20217;-76
2021/12/26 07:23:44;;;;;;;10.77;9.33;;;;;;;-0.82;100.00;97252.72;4952934;28;20210;-72
2021/12/26 07:26:12;;;;;;;11.40;9.13;;;;;;;-0.83;100.00;97255.47;4945262;28;20641;-76
2021/12/26 07:28:40;;;;;;;11.07;8.80;;;;;;;-0.81;100.00;97248.38;4938044;28;20598;-72
2021/12/26 07:31:08;;;;;;;9.93;8.93;;;;;;;-0.80;100.00;97248.25;4947998;28;20442;-75
2021/12/26 07:33:37;;;;;;;10.20;9.20;;;;;;;-0.77;100.00;97247.19;4935702;28;20253;-74
2021/12/26 07:36:06;;;;;;;10.20;9.20;;;;;;;-0.66;100.00;97255.06;4955197;28;21407;-74
2021/12/26 07:38:34;;;;;;;11.00;8.90;;;;;;;-0.74;100.00;97255.63;4957223;28;20211;-71
2021/12/26 07:41:22;;;;;;;11.53;9.37;;;;;;;-0.69;100.00;97264.88;4950955;28;20729;-74
2021/12/26 07:43:50;;;;;;;12.37;9.87;;;;;;;-0.53;100.00;97249.78;4944659;28;20377;-74
2021/12/26 07:46:18;;;;;;;11.57;10.13;;;;;;;-0.38;100.00;97258.25;4943353;28;20235;-74
2021/12/26 07:48:46;;;;;;;11.67;9.20;;;;;;;-0.35;100.00;97263.22;4923418;28;20912;-74
2021/12/26 07:51:14;;;;;;;9.97;8.67;;;;;;;-0.44;100.00;97261.31;4957092;28;20207;-74
2021/12/26 07:53:42;;;;;;;10.90;8.87;;;;;;;-0.41;100.00;97262.84;4952971;28;20210;-72
2021/12/26 07:56:11;;;;;;;12.37;9.60;;;;;;;-0.45;100.00;97257.03;4945454;28;20239;-75
2021/12/26 07:58:40;;;;;;;11.07;9.20;;;;;;;-0.45;100.00;97270.06;4958422;28;20489;-71
2021/12/26 08:01:08;;;;;;;11.47;10.30;;;;;;;-0.49;100.00;97269.44;4947954;28;20221;-74
2021/12/26 08:03:37;;;;;;;10.47;9.37;;;;;;;-0.54;100.00;97281.97;4918190;28;20220;-73
2021/12/26 08:06:07;;;;;;;8.80;7.97;;;;;;;-0.54;100.00;97276.75;4955219;28;20329;-75
2021/12/26 08:08:36;;;;;;;9.03;8.13;;;;;;;-0.53;100.00;97288.00;4952801;28;20218;-72
2021/12/26 08:11:06;;;;;;;10.10;8.40;;;;;;;-0.49;100.00;97284.25;4960104;28;20441;-74
2021/12/26 08:13:34;;;;;;;15.70;12.30;;;;;;;-0.46;100.00;97284.03;4947770;28;20309;-71
2021/12/26 08:16:04;;;;;;;11.03;9.07;;;;;;;-0.46;100.00;97297.03;4943419;28;20457;-73
2021/12/26 08:18:35;;;;;;;10.97;8.87;;;;;;;-0.43;100.00;97286.41;4944186;28;20210;-75
2021/12/26 08:21:04;;;;;;;10.63;9.53;;;;;;;-0.48;100.00;97284.13;4953049;28;20213;-75
2021/12/26 08:23:32;;;;;;;11.20;10.17;;;;;;;-0.43;100.00;97289.00;4960299;28;20202;-73
2021/12/26 08:26:00;;;;;;;9.73;8.73;;;;;;;-0.38;100.00;97286.03;4958535;28;20726;-75
2021/12/26 08:28:28;;;;;;;11.60;9.17;;;;;;;-0.35;100.00;97283.25;4946271;28;20609;-74
2021/12/26 08:30:56;;;;;;;10.77;8.97;;;;;;;-0.34;100.00;97293.53;4935961;28;20250;-72
2021/12/26 08:33:25;;;;;;;10.70;9.60;;;;;;;-0.34;100.00;97293.53;4944537;28;20465;-74
2021/12/26 08:35:53;;;;;;;11.30;9.00;;;;;;;-0.30;100.00;97287.16;4925752;28;20242;-71
2021/12/26 08:38:21;;;;;;;11.70;10.40;;;;;;;-0.27;100.00;97290.47;4957195;28;20207;-74
2021/12/26 08:40:50;;;;;;;10.90;9.27;;;;;;;-0.24;100.00;97285.03;4955581;28;20217;-73
2021/12/26 08:43:18;;;;;;;10.70;8.50;;;;;;;-0.23;100.00;97286.69;4942436;28;20474;-76
2021/12/26 08:45:47;;;;;;;9.97;9.03;;;;;;;-0.19;100.00;97286.34;4951377;28;20207;-72
2021/12/26 08:48:16;;;;;;;11.60;9.40;;;;;;;-0.20;100.00;97286.47;4932944;28;20241;-74
2021/12/26 08:51:04;;;;;;;9.40;8.50;;;;;;;-0.23;100.00;97289.28;4929465;28;20222;-72
2021/12/26 08:53:54;;;;;;;9.60;8.63;;;;;;;-0.25;100.00;97289.41;4947049;28;20206;-73
2021/12/26 08:56:22;;;;;;;10.67;9.57;;;;;;;-0.28;100.00;97291.41;4958361;28;20615;-75
2021/12/26 08:58:50;;;;;;;10.63;8.93;;;;;;;-0.25;100.00;97291.19;4947519;28;20225;-73
2021/12/26 09:01:25;;;;;;;10.40;9.30;;;;;;;-0.26;100.00;97285.16;4957461;28;20206;-75
2021/12/26 09:03:53;;;;;;;10.17;9.10;;;;;;;-0.27;100.00;97291.31;4944741;28;21148;-73
2021/12/26 09:06:23;;;;;;;13.30;10.03;;;;;;;-0.24;100.00;97292.84;4930059;28;20713;-75
2021/12/26 09:08:51;;;;;;;10.27;9.27;;;;;;;-0.25;100.00;97296.38;4946949;28;20595;-73
2021/12/26 09:11:19;;;;;;;9.70;8.57;;;;;;;-0.21;100.00;97290.00;4957231;28;20221;-75
2021/12/26 09:13:47;;;;;;;8.93;8.10;;;;;;;-0.17;100.00;97289.69;4947179;28;20846;-72
2021/12/26 09:16:15;;;;;;;10.33;9.33;;;;;;;-0.14;100.00;97293.84;4957667;28;20360;-75
2021/12/26 09:18:44;;;;;;;10.97;9.87;;;;;;;-0.16;100.00;97293.94;4947088;28;20698;-73
2021/12/26 09:21:12;;;;;;;9.03;8.20;;;;;;;-0.09;100.00;97301.28;4920681;28;20488;-74
2021/12/26 09:23:41;;;;;;;10.97;8.67;;;;;;;0.01;100.00;97306.66;4959234;28;20265;-72
2021/12/26 09:26:09;;;;;;;9.90;7.80;;;;;;;0.01;100.00;97304.91;4950031;28;20607;-77
2021/12/26 09:28:38;;;;;;;10.47;8.53;;;;;;;0.02;100.00;97308.31;4960267;28;20237;-76
2021/12/26 09:31:06;;;;;;;10.70;8.73;;;;;;;0.00;100.00;97308.44;4947972;28;20225;-75
2021/12/26 09:33:35;;;;;;;8.70;7.80;;;;;;;0.08;100.00;97310.47;4958777;28;20616;-77
2021/12/26 09:36:05;;;;;;;8.43;7.40;;;;;;;0.19;100.00;97309.66;4918681;28;20233;-75
2021/12/26 09:38:38;;;;;;;11.07;8.83;;;;;;;0.20;100.00;97308.72;4956144;28;20206;-76
2021/12/26 09:41:07;;;;;;;7.97;7.17;;;;;;;0.24;100.00;97310.16;4945049;28;20240;-76
2021/12/26 09:43:35;;;;;;;10.13;8.83;;;;;;;0.21;100.00;97310.38;4944495;28;20250;-77
2021/12/26 09:46:09;;;;;;;11.80;8.80;;;;;;;0.31;100.00;97313.13;4949003;28;20260;-78
2021/12/26 09:48:37;;;;;;;10.03;8.33;;;;;;;0.29;100.00;97297.59;4954348;28;20761;-77
2021/12/26 09:51:05;;;;;;;8.73;7.83;;;;;;;0.34;100.00;97295.47;4947696;28;20214;-78
2021/12/26 09:53:38;;;;;;;10.27;8.00;;;;;;;0.32;100.00;97292.13;4922352;28;20229;-72
2021/12/26 09:56:10;;;;;;;10.40;8.37;;;;;;;0.40;100.00;97296.78;4950010;28;20725;-74
2021/12/26 09:58:53;;;;;;;9.43;8.53;;;;;;;0.38;100.00;97289.09;4954132;28;20422;-77
2021/12/26 10:01:29;;;;;;;10.10;7.80;;;;;;;0.31;100.00;97287.88;4947074;28;20572;-74
2021/12/26 10:03:57;;;;;;;9.60;7.73;;;;;;;0.35;100.00;97286.69;4958504;28;20234;-74
2021/12/26 10:06:25;;;;;;;10.60;8.40;;;;;;;0.34;100.00;97276.41;4950053;28;20598;-73
2021/12/26 10:08:57;;;;;;;8.37;7.47;;;;;;;0.34;100.00;97279.81;4917838;28;20219;-73
2021/12/26 10:11:28;;;;;;;10.83;8.67;;;;;;;0.32;100.00;97280.91;4954285;28;20217;-71
2021/12/26 10:13:58;;;;;;;7.77;7.03;;;;;;;0.50;100.00;97278.66;4957077;28;20221;-71
2021/12/26 10:16:28;;;;;;;10.30;8.33;;;;;;;0.37;100.00;97276.16;4945144;28;20302;-70
2021/12/26 10:18:57;;;;;;;9.83;8.07;;;;;;;0.35;100.00;97278.06;4946597;28;20582;-70
2021/12/26 10:21:35;;;;;;;11.97;9.70;;;;;;;0.35;100.00;97273.66;4941012;28;20210;-74
2021/12/26 10:24:06;;;;;;;10.13;9.03;;;;;;;0.44;100.00;97277.34;4915574;28;20435;-73
2021/12/26 10:26:37;;;;;;;9.23;8.33;;;;;;;0.43;100.00;97273.06;4945246;28;20393;-72
2021/12/26 10:29:11;;;;;;;8.87;7.93;;;;;;;0.48;100.00;97270.94;4955252;28;20896;-74
2021/12/26 10:31:45;;;;;;;12.57;11.27;;;;;;;0.45;100.00;97259.94;4948184;28;20209;-74
2021/12/26 10:34:18;;;;;;;12.27;9.80;;;;;;;0.57;100.00;97264.19;4951786;28;20720;-72
2021/12/26 10:36:48;;;;;;;10.23;8.63;;;;;;;0.69;100.00;97260.63;4954309;28;20726;-75
2021/12/26 10:39:18;;;;;;;9.67;8.67;;;;;;;0.57;100.00;97258.97;4912822;28;20635;-73
2021/12/26 10:41:50;;;;;;;8.83;8.03;;;;;;;0.56;100.00;97262.53;4944959;28;20217;-75
2021/12/26 10:44:33;;;;;;;10.03;9.03;;;;;;;0.71;100.00;97253.50;4954437;28;20215;-73
2021/12/26 10:47:05;;;;;;;10.30;9.20;;;;;;;0.65;100.00;97259.22;4944090;28;20234;-76
2021/12/26 10:49:36;;;;;;;9.27;8.37;;;;;;;0.65;100.00;97253.19;4951203;28;20431;-75
2021/12/26 10:52:11;;;;;;;10.20;9.10;;;;;;;0.57;100.00;97244.19;4958371;28;20207;-73
2021/12/26 10:54:41;;;;;;;7.97;7.27;;;;;;;0.73;100.00;97248.19;4912987;28;20218;-72
2021/12/26 10:57:19;;;;;;;9.20;8.20;;;;;;;0.65;100.00;97242.75;4943990;28;20233;-73
2021/12/26 11:00:05;;;;;;;9.77;8.37;;;;;;;0.59;100.00;97251.06;4955166;28;20662;-75
2021/12/26 11:02:41;;;;;;;8.47;7.60;;;;;;;0.50;100.00;97244.75;4944152;28;20214;-76
2021/12/26 11:05:11;;;;;;;9.87;8.87;;;;;;;0.55;100.00;97251.25;4954888;28;20638;-73
2021/12/26 11:07:48;;;;;;;8.87;7.97;;;;;;;0.67;100.00;97243.47;4953951;28;20540;-74
2021/12/26 11:10:19;;;;;;;13.13;9.53;;;;;;;0.66;100.00;97240.00;4911818;28;20241;-73
2021/12/26 11:12:50;;;;;;;10.60;8.47;;;;;;;0.63;100.00;97236.81;4944893;28;20791;-75
2021/12/26 11:15:20;;;;;;;8.80;7.80;;;;;;;0.72;100.00;97230.88;4954428;28;20209;-73
2021/12/26 11:17:51;;;;;;;9.27;8.03;;;;;;;0.70;100.00;97227.56;4947618;28;20233;-75
2021/12/26 11:20:22;;;;;;;9.33;8.00;;;;;;;0.74;100.00;97233.34;4938917;28;20221;-75
2021/12/26 11:22:50;;;;;;;9.67;8.67;;;;;;;0.73;100.00;97232.53;4936260;28;20210;-74
2021/12/26 11:25:18;;;;;;;8.67;7.03;;;;;;;0.70;100.00;97233.59;4922915;28;20214;-73
2021/12/26 11:27:46;;;;;;;11.33;8.63;;;;;;;0.78;100.00;97235.59;4924904;28;20733;-75
2021/12/26 11:30:16;;;;;;;10.97;8.40;;;;;;;0.81;100.00;97224.94;4949031;28;20209;-76
2021/12/26 11:32:44;;;;;;;8.93;8.17;;;;;;;0.81;100.00;97224.94;4934504;28;20218;-75